CheckWX is a tool to help pilots better visualize weather data.  It is not intended as a substitute for an official pre-flight weather briefing.

06:46:21 UTC

CYEV METAR
Inuvik Mike Zubko Airport
Inuvik, Canada
Current

46 mins ago

CYEV 210600Z 07009G15KT 15SM SCT110 BKN250 14/03 A2998 RMK AC3CI2 SLP158
Observed
May-21 @ 06:00 UTC
Wind
  • 070° at 9 KTS
  • Gusting to 15 KTS
Visibility
15 SM
Flight Rules
VFR
Cloud Levels
  • Scattered at 11,000' AGL
  • Broken at 25,000' AGL
Temperature
14°C / 57°F
Dewpoint
C / 37°F
Humidity
48%
Altimeter
29.98" Hg
Pressure
1015.22 hPa
Previous

2 hours ago

CYEV 210500Z 08010G16KT 15SM FEW050 SCT110 BKN250 16/03 A2997 RMK CU1AC3CI3 CU TR SLP155 DENSITY ALT 300FT
Observed
May-21 @ 05:00 UTC
Wind
  • 080° at 10 KTS
  • Gusting to 16 KTS
Visibility
15 SM
Flight Rules
VFR
Cloud Levels
  • Few at 5,000' AGL
  • Scattered at 11,000' AGL
  • Broken at 25,000' AGL
Temperature
16°C / 61°F
Dewpoint
C / 37°F
Humidity
42%
Altimeter
29.97" Hg
Pressure
1014.92 hPa
Previous

3 hours ago

CYEV 210400Z 08014KT 15SM FEW050 SCT100 BKN250 17/04 A2996 RMK CU1AC3CI2 CU TR SLP152 DENSITY ALT 500FT
Observed
May-21 @ 04:00 UTC
Wind
  • 080° at 14 KTS
Visibility
15 SM
Flight Rules
VFR
Cloud Levels
  • Few at 5,000' AGL
  • Scattered at 10,000' AGL
  • Broken at 25,000' AGL
Temperature
17°C / 63°F
Dewpoint
C / 39°F
Humidity
42%
Altimeter
29.96" Hg
Pressure
1014.52 hPa